createdAt,value
2022-08-20T00:03:58.836Z,8.27
2022-08-20T00:07:00.025Z,8.45
2022-08-20T00:12:53.240Z,8.20
2022-08-20T00:15:30.528Z,8.98
2022-08-20T00:18:13.441Z,8.43
2022-08-20T00:21:01.181Z,8.77
2022-08-20T00:23:34.403Z,8.75
2022-08-20T00:26:08.409Z,9.38
2022-08-20T00:28:48.452Z,8.63
2022-08-20T00:32:02.377Z,8.48
2022-08-20T00:35:09.006Z,8.30
2022-08-20T00:47:09.984Z,7.90
2022-08-20T00:50:17.283Z,7.32
2022-08-20T00:56:36.154Z,8.25
2022-08-20T00:59:33.898Z,7.63
2022-08-20T01:05:29.849Z,7.47
2022-08-20T01:07:58.610Z,7.68
2022-08-20T01:10:44.733Z,7.72
2022-08-20T01:13:21.697Z,7.20
2022-08-20T01:15:51.622Z,8.15
2022-08-20T01:18:46.093Z,8.13
2022-08-20T01:21:33.756Z,8.18
2022-08-20T01:24:15.039Z,7.80
2022-08-20T01:26:47.297Z,7.90
2022-08-20T01:29:26.047Z,7.53
2022-08-20T01:32:24.287Z,8.15
2022-08-20T01:36:32.245Z,7.55
2022-08-20T01:39:34.551Z,7.88
2022-08-20T01:45:30.918Z,8.50
2022-08-20T02:16:54.743Z,8.35
2022-08-20T02:23:59.247Z,7.93
2022-08-20T02:31:05.436Z,8.65
2022-08-20T02:37:27.201Z,8.38
2022-08-20T02:50:22.969Z,7.38
2022-08-20T02:59:04.262Z,7.30
2022-08-20T03:31:51.544Z,8.60
2022-08-20T03:49:40.546Z,9.20
2022-08-20T03:54:09.254Z,9.30
2022-08-20T04:03:52.053Z,10.82
2022-08-20T04:41:22.801Z,13.10
2022-08-20T04:43:54.843Z,13.70
2022-08-20T04:46:29.137Z,12.90
2022-08-20T04:49:18.196Z,13.68
2022-08-20T04:52:38.033Z,12.52
2022-08-20T05:02:45.290Z,13.45
2022-08-20T05:11:34.735Z,11.27
2022-08-20T05:14:09.348Z,11.02
2022-08-20T05:16:50.899Z,8.00
2022-08-20T05:19:18.091Z,7.20
2022-08-20T05:21:44.886Z,6.40
2022-08-20T05:24:12.383Z,5.22
2022-08-20T05:26:39.357Z,4.28
2022-08-20T05:29:06.963Z,4.05
2022-08-20T05:31:34.906Z,3.80
2022-08-20T05:34:11.134Z,3.83
2022-08-20T05:36:43.872Z,3.38
2022-08-20T05:39:11.095Z,3.15
2022-08-20T05:41:38.528Z,3.10
2022-08-20T05:44:10.101Z,3.35
2022-08-20T05:46:40.966Z,2.55
2022-08-20T05:49:09.808Z,2.67
2022-08-20T05:51:37.477Z,2.17
2022-08-20T05:54:05.362Z,1.60
2022-08-20T05:56:32.925Z,1.70
2022-08-20T05:59:04.572Z,1.45
2022-08-20T06:01:32.870Z,1.48
2022-08-20T06:04:18.802Z,1.20
2022-08-20T06:06:47.405Z,1.60
2022-08-20T06:09:30.785Z,1.48
2022-08-20T06:11:59.967Z,1.60
2022-08-20T06:14:27.789Z,1.17
2022-08-20T06:16:57.886Z,1.55
2022-08-20T06:19:27.175Z,1.33
2022-08-20T06:22:00.151Z,1.60
2022-08-20T06:24:27.057Z,1.38
2022-08-20T06:26:58.808Z,1.58
2022-08-20T06:29:26.426Z,1.40
2022-08-20T06:31:53.924Z,1.77
2022-08-20T06:34:20.944Z,1.58
2022-08-20T06:36:47.922Z,1.30
2022-08-20T06:39:15.486Z,1.40
2022-08-20T06:41:42.744Z,1.60
2022-08-20T06:44:10.299Z,1.23
2022-08-20T06:46:38.075Z,1.30
2022-08-20T06:49:06.566Z,1.65
2022-08-20T06:51:34.383Z,1.23
2022-08-20T06:54:01.414Z,1.60
2022-08-20T06:56:28.332Z,1.20
2022-08-20T06:58:55.580Z,1.23
2022-08-20T07:01:23.377Z,1.25
2022-08-20T07:03:55.542Z,1.30
2022-08-20T07:06:25.522Z,1.10
2022-08-20T07:08:54.193Z,1.30
2022-08-20T07:11:26.627Z,1.08
2022-08-20T07:13:56.571Z,1.42
2022-08-20T07:16:23.955Z,1.10
2022-08-20T07:18:51.302Z,1.10
2022-08-20T07:21:20.498Z,1.20
2022-08-20T07:23:49.511Z,1.30
2022-08-20T07:26:19.673Z,1.20
2022-08-20T07:28:46.860Z,1.20
2022-08-20T07:31:32.327Z,1.20
2022-08-20T07:34:04.459Z,1.30
2022-08-20T07:36:32.007Z,1.27
2022-08-20T07:38:59.059Z,1.10
2022-08-20T07:41:32.722Z,1.10
2022-08-20T07:43:59.506Z,1.17
2022-08-20T07:46:31.318Z,1.10
2022-08-20T07:48:59.209Z,1.33
2022-08-20T07:51:26.175Z,1.23
2022-08-20T07:53:53.205Z,1.45
2022-08-20T07:56:22.539Z,1.40
2022-08-20T07:58:55.478Z,1.30
2022-08-20T08:01:28.656Z,1.35
2022-08-20T08:03:57.577Z,2.17
2022-08-20T08:06:29.183Z,1.30
2022-08-20T08:09:09.532Z,1.70
2022-08-20T08:11:38.834Z,1.60
2022-08-20T08:14:07.262Z,1.38
2022-08-20T08:16:35.450Z,1.30
2022-08-20T08:19:06.232Z,1.27
2022-08-20T08:21:33.157Z,5.20
2022-08-20T08:24:00.329Z,1.50
2022-08-20T08:26:28.956Z,1.67
2022-08-20T08:28:58.129Z,1.48
2022-08-20T08:31:25.975Z,1.70
2022-08-20T08:33:53.143Z,1.83
2022-08-20T08:36:20.177Z,1.77
2022-08-20T08:38:47.240Z,1.67
2022-08-20T08:41:21.947Z,1.70
2022-08-20T08:43:53.473Z,1.70
2022-08-20T08:46:24.840Z,1.90
2022-08-20T08:48:55.418Z,2.20
2022-08-20T08:51:29.333Z,2.30
2022-08-20T08:53:57.559Z,2.60
2022-08-20T08:56:28.414Z,2.35
2022-08-20T08:59:04.218Z,2.63
2022-08-20T09:01:54.210Z,3.45
2022-08-20T09:04:22.131Z,1.90
2022-08-20T09:06:52.933Z,1.85
2022-08-20T09:09:32.258Z,1.70
2022-08-20T09:12:14.759Z,2.63
2022-08-20T09:14:41.731Z,2.47
2022-08-20T09:17:08.743Z,2.20
2022-08-20T09:19:35.928Z,2.53
2022-08-20T09:22:10.461Z,2.42
2022-08-20T09:24:37.923Z,1.98
2022-08-20T09:27:05.023Z,1.95
2022-08-20T09:29:33.094Z,2.10
2022-08-20T09:32:09.271Z,1.90
2022-08-20T09:34:47.809Z,2.17
2022-08-20T09:37:15.507Z,1.70
2022-08-20T09:39:43.206Z,1.70
2022-08-20T09:42:15.058Z,1.50
2022-08-20T09:44:42.237Z,1.83
2022-08-20T09:47:09.700Z,1.33
2022-08-20T09:49:40.497Z,1.30
2022-08-20T09:52:10.560Z,1.30
2022-08-20T09:54:39.768Z,1.23
2022-08-20T09:57:14.872Z,1.50
2022-08-20T09:59:42.618Z,1.30
2022-08-20T10:02:09.501Z,1.27
2022-08-20T10:04:36.342Z,1.20
2022-08-20T10:07:07.601Z,0.98
2022-08-20T10:09:36.771Z,1.10
2022-08-20T10:12:04.507Z,1.08
2022-08-20T10:14:31.456Z,1.20
2022-08-20T10:16:59.977Z,1.13
2022-08-20T10:19:27.969Z,1.05
2022-08-20T10:21:54.844Z,1.20
2022-08-20T10:24:22.261Z,1.30
2022-08-20T10:26:49.949Z,1.30
2022-08-20T10:29:17.115Z,1.20
2022-08-20T10:31:44.140Z,1.50
2022-08-20T10:34:10.975Z,1.20
2022-08-20T10:36:37.935Z,1.83
2022-08-20T10:39:04.800Z,1.15
2022-08-20T10:41:31.810Z,0.88
2022-08-20T10:43:58.682Z,1.20
2022-08-20T10:46:25.641Z,1.30
2022-08-20T10:48:52.775Z,1.10
2022-08-20T10:51:19.723Z,1.30
2022-08-20T10:53:46.763Z,1.10
2022-08-20T10:56:15.620Z,1.20
2022-08-20T10:58:43.116Z,1.20
2022-08-20T11:01:11.580Z,1.08
2022-08-20T11:03:38.632Z,1.30
2022-08-20T11:06:06.411Z,1.30
2022-08-20T11:08:36.034Z,1.20
2022-08-20T11:11:04.418Z,1.08
2022-08-20T11:13:31.608Z,1.30
2022-08-20T11:15:58.402Z,1.20
2022-08-20T11:18:25.192Z,1.27
2022-08-20T11:20:52.405Z,1.08
2022-08-20T11:23:19.376Z,1.50
2022-08-20T11:25:46.325Z,1.17
2022-08-20T11:28:13.272Z,1.00
2022-08-20T11:30:40.274Z,1.08
2022-08-20T11:33:07.670Z,1.08
2022-08-20T11:35:43.512Z,0.82
2022-08-20T11:38:16.880Z,1.17
2022-08-20T11:40:43.750Z,1.27
2022-08-20T11:43:15.549Z,1.00
2022-08-20T11:45:44.737Z,1.30
2022-08-20T11:48:11.736Z,1.10
2022-08-20T11:50:38.713Z,1.10
2022-08-20T11:53:05.561Z,1.08
2022-08-20T11:55:35.792Z,1.20
2022-08-20T11:58:02.831Z,1.40
2022-08-20T12:00:32.560Z,1.38
2022-08-20T12:03:08.718Z,1.00
2022-08-20T12:05:37.252Z,1.00
2022-08-20T12:08:04.673Z,0.98
2022-08-20T12:10:31.967Z,1.10
2022-08-20T12:12:59.080Z,2.13
2022-08-20T12:15:27.540Z,1.00
2022-08-20T12:17:55.651Z,1.30
2022-08-20T12:20:23.958Z,1.00
2022-08-20T12:22:51.466Z,1.10
2022-08-20T12:25:18.305Z,1.20
2022-08-20T12:27:46.000Z,1.20
2022-08-20T12:30:17.296Z,1.02
2022-08-20T12:32:44.858Z,1.17
2022-08-20T12:35:13.135Z,1.00
2022-08-20T12:37:40.890Z,1.00
2022-08-20T12:40:12.887Z,1.45
2022-08-20T12:42:40.178Z,0.98
2022-08-20T12:45:07.967Z,0.93
2022-08-20T12:47:38.631Z,1.10
2022-08-20T12:50:13.507Z,1.10
2022-08-20T12:52:41.234Z,1.00
2022-08-20T12:55:13.508Z,0.90
2022-08-20T12:57:44.090Z,0.90
2022-08-20T13:00:20.680Z,0.70
2022-08-20T13:02:49.626Z,1.10
2022-08-20T13:05:17.082Z,1.05
2022-08-20T13:07:45.065Z,1.17
2022-08-20T13:10:44.096Z,1.05
2022-08-20T13:13:17.660Z,1.00
2022-08-20T13:15:49.532Z,0.90
2022-08-20T13:18:16.677Z,1.00
2022-08-20T13:20:43.586Z,1.00
2022-08-20T13:23:10.451Z,0.88
2022-08-20T13:25:37.345Z,0.85
2022-08-20T13:28:05.549Z,1.00
2022-08-20T13:30:34.637Z,0.82
2022-08-20T13:33:01.747Z,1.00
2022-08-20T13:35:28.786Z,0.80
2022-08-20T13:37:56.027Z,0.90
2022-08-20T13:40:26.523Z,0.90
2022-08-20T13:42:54.451Z,0.70
2022-08-20T13:45:21.537Z,0.90
2022-08-20T13:47:52.661Z,0.80
2022-08-20T13:50:21.224Z,1.00
2022-08-20T13:52:48.312Z,0.80
2022-08-20T13:55:18.432Z,1.13
2022-08-20T13:57:46.395Z,1.00
2022-08-20T14:00:18.276Z,1.15
2022-08-20T14:02:45.381Z,0.90
2022-08-20T14:05:19.304Z,1.15
2022-08-20T14:07:47.402Z,0.90
2022-08-20T14:10:24.298Z,1.10
2022-08-20T14:12:51.579Z,1.15
2022-08-20T14:15:19.577Z,1.10
2022-08-20T14:17:52.759Z,0.93
2022-08-20T14:20:31.950Z,1.35
2022-08-20T14:22:59.831Z,0.90
2022-08-20T14:25:27.460Z,1.17
2022-08-20T14:27:54.863Z,1.02
2022-08-20T14:30:32.625Z,0.90
2022-08-20T14:32:59.625Z,1.00
2022-08-20T14:35:26.507Z,0.90
2022-08-20T14:37:55.454Z,0.80
2022-08-20T14:40:27.532Z,1.00
2022-08-20T14:42:55.670Z,0.90
2022-08-20T14:45:23.205Z,1.10
2022-08-20T14:47:54.150Z,1.00
2022-08-20T14:50:30.892Z,0.80
2022-08-20T14:52:58.429Z,0.90
2022-08-20T14:55:31.083Z,1.10
2022-08-20T14:57:58.748Z,0.80
2022-08-20T15:00:31.114Z,1.00
2022-08-20T15:02:58.448Z,0.98
2022-08-20T15:05:25.934Z,1.02
2022-08-20T15:07:54.377Z,1.10
2022-08-20T15:10:28.254Z,1.00
2022-08-20T15:12:56.525Z,1.00
2022-08-20T15:15:25.409Z,1.10
2022-08-20T15:17:57.795Z,1.30
2022-08-20T15:20:28.164Z,0.90
2022-08-20T15:22:55.323Z,1.10
2022-08-20T15:25:24.589Z,1.13
2022-08-20T15:27:51.814Z,0.90
2022-08-20T15:30:22.853Z,0.80
2022-08-20T15:32:54.796Z,0.90
2022-08-20T15:35:27.092Z,0.65
2022-08-20T15:37:57.617Z,0.85
2022-08-20T15:40:28.637Z,0.90
2022-08-20T15:42:59.856Z,0.70
2022-08-20T15:45:27.476Z,1.10
2022-08-20T15:48:03.305Z,0.82
2022-08-20T15:50:38.630Z,1.00
2022-08-20T15:53:10.555Z,1.00
2022-08-20T15:55:41.147Z,0.80
2022-08-20T15:58:40.404Z,0.90
2022-08-20T16:01:35.665Z,1.10
2022-08-20T16:04:09.604Z,0.80
2022-08-20T16:06:36.758Z,0.95
2022-08-20T16:09:15.158Z,0.80
2022-08-20T16:11:56.064Z,0.90
2022-08-20T16:14:30.951Z,0.80
2022-08-20T16:17:04.579Z,1.00
2022-08-20T16:19:47.188Z,0.75
2022-08-20T16:22:17.700Z,0.73
2022-08-20T16:24:44.801Z,1.00
2022-08-20T16:27:21.033Z,1.10
2022-08-20T16:30:11.860Z,0.93
2022-08-20T16:32:41.744Z,0.80
2022-08-20T16:35:29.865Z,0.88
2022-08-20T16:38:21.091Z,0.90
2022-08-20T16:40:52.160Z,1.00
2022-08-20T16:43:29.115Z,0.80
2022-08-20T16:46:02.310Z,1.00
2022-08-20T16:48:34.749Z,1.13
2022-08-20T16:51:06.332Z,1.30
2022-08-20T16:53:33.205Z,1.80
2022-08-20T16:56:00.178Z,7.10
2022-08-20T16:58:27.316Z,1.10
2022-08-20T17:01:08.645Z,1.10
2022-08-20T17:03:39.667Z,1.00
2022-08-20T17:06:33.819Z,1.15
2022-08-20T17:09:06.309Z,1.40
2022-08-20T17:11:36.194Z,1.63
2022-08-20T17:14:08.095Z,1.42
2022-08-20T17:16:41.817Z,1.30
2022-08-20T17:19:31.498Z,1.10
2022-08-20T17:22:14.648Z,1.10
2022-08-20T17:24:41.668Z,1.00
2022-08-20T17:27:15.506Z,1.27
2022-08-20T17:29:54.659Z,1.20
2022-08-20T17:32:27.143Z,1.30
2022-08-20T17:34:57.398Z,1.30
2022-08-20T17:37:34.367Z,1.70
2022-08-20T17:40:27.034Z,1.60
2022-08-20T17:43:03.912Z,1.60
2022-08-20T17:45:40.098Z,1.30
2022-08-20T17:48:12.495Z,1.20
2022-08-20T17:50:41.465Z,1.20
2022-08-20T17:53:23.426Z,1.40
2022-08-20T17:55:58.807Z,1.20
2022-08-20T17:58:36.426Z,1.65
2022-08-20T18:01:08.169Z,1.38
2022-08-20T18:03:38.354Z,1.25
2022-08-20T18:06:12.026Z,1.35
2022-08-20T18:09:00.464Z,1.45
2022-08-20T18:11:34.276Z,1.23
2022-08-20T18:14:16.387Z,1.20
2022-08-20T18:17:02.660Z,1.58
2022-08-20T18:19:38.620Z,1.60
2022-08-20T18:22:13.887Z,1.35
2022-08-20T18:24:45.358Z,1.50
2022-08-20T18:27:15.714Z,1.35
2022-08-20T18:29:46.543Z,1.60
2022-08-20T18:32:49.980Z,3.00
2022-08-20T18:35:21.689Z,2.00
2022-08-20T18:37:49.343Z,1.98
2022-08-20T18:40:33.138Z,1.30
2022-08-20T18:43:11.713Z,2.55
2022-08-20T18:45:38.600Z,1.95
2022-08-20T18:48:05.948Z,2.05
2022-08-20T18:50:38.555Z,3.10
2022-08-20T18:53:17.043Z,2.60
2022-08-20T18:55:48.736Z,1.30
2022-08-20T18:58:32.731Z,1.25
2022-08-20T19:01:02.526Z,2.10
2022-08-20T19:03:36.670Z,2.13
2022-08-20T19:06:15.875Z,1.60
2022-08-20T19:08:54.196Z,2.10
2022-08-20T19:11:56.995Z,1.48
2022-08-20T19:14:29.711Z,1.70
2022-08-20T19:17:02.776Z,1.75
2022-08-20T19:19:32.886Z,1.50
2022-08-20T19:22:00.913Z,1.65
2022-08-20T19:24:30.535Z,1.50
2022-08-20T19:27:01.780Z,1.98
2022-08-20T19:29:42.371Z,1.95
2022-08-20T19:32:18.725Z,1.35
2022-08-20T19:34:53.135Z,2.20
2022-08-20T19:37:35.588Z,1.75
2022-08-20T19:40:19.180Z,2.53
2022-08-20T19:42:46.471Z,2.35
2022-08-20T19:45:23.708Z,2.35
2022-08-20T19:48:15.304Z,2.10
2022-08-20T19:50:54.750Z,3.05
2022-08-20T19:53:30.141Z,3.05
2022-08-20T19:56:13.183Z,2.53
2022-08-20T19:58:40.857Z,3.17
2022-08-20T20:01:17.815Z,5.40
2022-08-20T20:03:59.572Z,4.70
2022-08-20T20:06:27.579Z,3.70
2022-08-20T20:09:04.348Z,3.65
2022-08-20T20:11:42.157Z,3.75
2022-08-20T20:14:11.805Z,3.45
2022-08-20T20:16:40.056Z,3.10
2022-08-20T20:19:26.289Z,4.10
2022-08-20T20:22:23.181Z,5.22
2022-08-20T20:25:05.913Z,8.32
2022-08-20T20:27:34.346Z,5.23
2022-08-20T20:30:10.394Z,5.32
2022-08-20T20:32:41.938Z,7.82
2022-08-20T20:35:09.058Z,5.55
2022-08-20T20:37:49.513Z,7.07
2022-08-20T20:40:36.105Z,8.27
2022-08-20T20:43:05.070Z,5.30
2022-08-20T20:45:41.356Z,5.05
2022-08-20T20:48:20.523Z,11.35
2022-08-20T20:50:48.532Z,5.40
2022-08-20T20:53:40.287Z,4.65
2022-08-20T20:56:37.578Z,4.38
2022-08-20T20:59:08.739Z,7.25
2022-08-20T21:01:49.791Z,4.85
2022-08-20T21:04:23.429Z,4.80
2022-08-20T21:06:56.603Z,8.07
2022-08-20T21:09:25.170Z,5.30
2022-08-20T21:11:52.067Z,5.50
2022-08-20T21:14:19.834Z,5.55
2022-08-20T21:16:47.124Z,4.47
2022-08-20T21:19:14.967Z,4.45
2022-08-20T21:21:41.944Z,4.20
2022-08-20T21:24:09.252Z,4.60
2022-08-20T21:26:36.683Z,4.15
2022-08-20T21:29:05.276Z,4.25
2022-08-20T21:31:36.775Z,5.53
2022-08-20T21:34:03.824Z,6.40
2022-08-20T21:36:30.611Z,4.57
2022-08-20T21:38:57.971Z,3.83
2022-08-20T21:41:25.140Z,4.40
2022-08-20T21:43:58.565Z,7.28
2022-08-20T21:46:28.442Z,6.28
2022-08-20T21:48:55.659Z,5.40
2022-08-20T21:51:22.466Z,4.72
2022-08-20T21:53:49.460Z,5.38
2022-08-20T21:56:17.224Z,4.97
2022-08-20T21:58:47.042Z,5.43
2022-08-20T22:01:14.782Z,5.00
2022-08-20T22:03:42.098Z,5.07
2022-08-20T22:06:11.790Z,5.00
2022-08-20T22:08:39.357Z,5.03
2022-08-20T22:11:08.463Z,6.65
2022-08-20T22:13:35.939Z,5.60
2022-08-20T22:16:08.977Z,4.40
2022-08-20T22:18:36.178Z,4.20
2022-08-20T22:21:03.850Z,5.35
2022-08-20T22:23:30.618Z,6.20
2022-08-20T22:25:57.762Z,4.70
2022-08-20T22:28:25.302Z,4.30
2022-08-20T22:30:52.791Z,4.65
2022-08-20T22:33:23.297Z,4.95
2022-08-20T22:35:53.297Z,5.22
2022-08-20T22:38:23.812Z,4.57
2022-08-20T22:40:53.729Z,5.70
2022-08-20T22:43:21.462Z,5.18
2022-08-20T22:45:50.337Z,6.10
2022-08-20T22:48:19.454Z,4.80
2022-08-20T22:50:47.659Z,4.63
2022-08-20T22:53:15.398Z,4.65
2022-08-20T22:55:42.704Z,5.80
2022-08-20T22:58:10.372Z,4.97
2022-08-20T23:00:40.448Z,6.20
2022-08-20T23:03:07.795Z,5.80
2022-08-20T23:05:36.778Z,5.38
2022-08-20T23:08:07.500Z,6.32
2022-08-20T23:10:36.680Z,6.43
2022-08-20T23:13:04.682Z,6.35
2022-08-20T23:15:33.641Z,6.38
2022-08-20T23:18:19.127Z,6.75
2022-08-20T23:20:56.579Z,6.45
2022-08-20T23:23:29.613Z,6.05
2022-08-20T23:25:56.859Z,5.55
2022-08-20T23:28:31.570Z,5.80
2022-08-20T23:30:58.776Z,5.05
2022-08-20T23:33:25.679Z,4.60
2022-08-20T23:35:52.858Z,5.82
2022-08-20T23:38:20.542Z,6.07
2022-08-20T23:40:47.405Z,5.38
2022-08-20T23:43:14.221Z,6.07
2022-08-20T23:45:41.894Z,6.32
2022-08-20T23:48:09.288Z,5.90
2022-08-20T23:50:37.204Z,6.22
2022-08-20T23:53:04.977Z,6.00
2022-08-20T23:55:32.151Z,6.03
2022-08-20T23:57:59.116Z,6.18
